sensor_id;sensor_type;location;lat;lon;timestamp;temperature;humidity
52919;DHT22;38793;52.690;6.812;2022-11-15T00:00:19;7.60;99.90
52919;DHT22;38793;52.690;6.812;2022-11-15T00:02:44;7.60;99.90
52919;DHT22;38793;52.690;6.812;2022-11-15T00:05:10;7.60;99.90
52919;DHT22;38793;52.690;6.812;2022-11-15T00:07:35;7.70;99.90
52919;DHT22;38793;52.690;6.812;2022-11-15T00:10:01;7.70;99.90
52919;DHT22;38793;52.690;6.812;2022-11-15T00:12:27;7.70;99.90
52919;DHT22;38793;52.690;6.812;2022-11-15T00:14:53;7.70;99.90
52919;DHT22;38793;52.690;6.812;2022-11-15T00:17:19;7.80;99.90
52919;DHT22;38793;52.690;6.812;2022-11-15T00:19:44;7.80;99.90
52919;DHT22;38793;52.690;6.812;2022-11-15T00:22:10;7.80;99.90
52919;DHT22;38793;52.690;6.812;2022-11-15T00:24:36;7.80;99.90
52919;DHT22;38793;52.690;6.812;2022-11-15T00:27:01;7.80;99.90
52919;DHT22;38793;52.690;6.812;2022-11-15T00:29:27;7.90;99.90
52919;DHT22;38793;52.690;6.812;2022-11-15T00:31:52;7.90;99.90
52919;DHT22;38793;52.690;6.812;2022-11-15T00:34:18;7.90;99.90
52919;DHT22;38793;52.690;6.812;2022-11-15T00:36:43;7.90;99.90
52919;DHT22;38793;52.690;6.812;2022-11-15T00:39:09;7.90;99.90
52919;DHT22;38793;52.690;6.812;2022-11-15T00:41:34;7.90;99.90
52919;DHT22;38793;52.690;6.812;2022-11-15T00:44:00;7.90;99.90
52919;DHT22;38793;52.690;6.812;2022-11-15T00:46:26;7.90;99.90
52919;DHT22;38793;52.690;6.812;2022-11-15T00:48:51;7.90;99.90
52919;DHT22;38793;52.690;6.812;2022-11-15T00:51:17;8.00;99.90
52919;DHT22;38793;52.690;6.812;2022-11-15T00:53:42;8.00;99.90
52919;DHT22;38793;52.690;6.812;2022-11-15T00:56:08;8.00;99.90
52919;DHT22;38793;52.690;6.812;2022-11-15T00:58:33;8.00;99.90
52919;DHT22;38793;52.690;6.812;2022-11-15T01:01:10;8.10;99.90
52919;DHT22;38793;52.690;6.812;2022-11-15T01:03:37;8.00;99.90
52919;DHT22;38793;52.690;6.812;2022-11-15T01:06:03;8.10;99.90
52919;DHT22;38793;52.690;6.812;2022-11-15T01:08:29;8.10;99.90
52919;DHT22;38793;52.690;6.812;2022-11-15T01:10:54;8.10;99.90
52919;DHT22;38793;52.690;6.812;2022-11-15T01:13:20;8.10;99.90
52919;DHT22;38793;52.690;6.812;2022-11-15T01:15:45;8.10;99.90
52919;DHT22;38793;52.690;6.812;2022-11-15T01:18:11;8.10;99.90
52919;DHT22;38793;52.690;6.812;2022-11-15T01:20:43;8.20;99.90
52919;DHT22;38793;52.690;6.812;2022-11-15T01:23:09;8.10;99.90
52919;DHT22;38793;52.690;6.812;2022-11-15T01:25:35;8.20;99.90
52919;DHT22;38793;52.690;6.812;2022-11-15T01:28:00;8.10;99.90
52919;DHT22;38793;52.690;6.812;2022-11-15T01:30:26;8.20;99.90
52919;DHT22;38793;52.690;6.812;2022-11-15T01:32:51;8.20;99.90
52919;DHT22;38793;52.690;6.812;2022-11-15T01:35:17;8.20;99.90
52919;DHT22;38793;52.690;6.812;2022-11-15T01:37:42;8.20;99.90
52919;DHT22;38793;52.690;6.812;2022-11-15T01:40:08;8.30;99.90
52919;DHT22;38793;52.690;6.812;2022-11-15T01:42:34;8.20;99.90
52919;DHT22;38793;52.690;6.812;2022-11-15T01:45:00;8.30;99.90
52919;DHT22;38793;52.690;6.812;2022-11-15T01:47:29;8.30;99.90
52919;DHT22;38793;52.690;6.812;2022-11-15T01:50:05;8.30;99.90
52919;DHT22;38793;52.690;6.812;2022-11-15T01:52:33;8.30;99.90
52919;DHT22;38793;52.690;6.812;2022-11-15T01:57:31;8.40;99.90
52919;DHT22;38793;52.690;6.812;2022-11-15T01:59:57;8.40;99.90
52919;DHT22;38793;52.690;6.812;2022-11-15T02:02:23;8.40;99.90
52919;DHT22;38793;52.690;6.812;2022-11-15T02:04:49;8.40;99.90
52919;DHT22;38793;52.690;6.812;2022-11-15T02:07:18;8.40;99.90
52919;DHT22;38793;52.690;6.812;2022-11-15T02:09:45;8.40;99.90
52919;DHT22;38793;52.690;6.812;2022-11-15T02:12:17;8.40;99.90
52919;DHT22;38793;52.690;6.812;2022-11-15T02:14:50;8.50;99.90
52919;DHT22;38793;52.690;6.812;2022-11-15T02:18:06;8.40;99.90
52919;DHT22;38793;52.690;6.812;2022-11-15T02:23:12;8.50;99.90
52919;DHT22;38793;52.690;6.812;2022-11-15T02:28:58;8.50;99.90
52919;DHT22;38793;52.690;6.812;2022-11-15T02:37:11;8.60;99.90
52919;DHT22;38793;52.690;6.812;2022-11-15T02:42:28;8.70;99.90
52919;DHT22;38793;52.690;6.812;2022-11-15T02:45:21;8.70;99.90
52919;DHT22;38793;52.690;6.812;2022-11-15T02:47:50;8.70;99.90
52919;DHT22;38793;52.690;6.812;2022-11-15T02:50:19;8.80;99.90
52919;DHT22;38793;52.690;6.812;2022-11-15T02:52:46;8.80;99.90
52919;DHT22;38793;52.690;6.812;2022-11-15T02:55:49;8.80;99.90
52919;DHT22;38793;52.690;6.812;2022-11-15T02:58:40;8.80;99.90
52919;DHT22;38793;52.690;6.812;2022-11-15T03:01:36;8.80;99.90
52919;DHT22;38793;52.690;6.812;2022-11-15T03:09:47;8.90;99.90
52919;DHT22;38793;52.690;6.812;2022-11-15T03:12:28;8.90;99.90
52919;DHT22;38793;52.690;6.812;2022-11-15T03:17:33;8.90;99.90
52919;DHT22;38793;52.690;6.812;2022-11-15T03:20:02;9.00;99.90
52919;DHT22;38793;52.690;6.812;2022-11-15T03:22:33;9.00;99.90
52919;DHT22;38793;52.690;6.812;2022-11-15T03:25:03;9.10;99.90
52919;DHT22;38793;52.690;6.812;2022-11-15T03:27:35;9.10;99.90
52919;DHT22;38793;52.690;6.812;2022-11-15T03:30:06;9.10;99.90
52919;DHT22;38793;52.690;6.812;2022-11-15T03:32:35;9.10;99.90
52919;DHT22;38793;52.690;6.812;2022-11-15T03:35:05;9.20;99.90
52919;DHT22;38793;52.690;6.812;2022-11-15T03:37:49;9.20;99.90
52919;DHT22;38793;52.690;6.812;2022-11-15T03:40:17;9.20;99.90
52919;DHT22;38793;52.690;6.812;2022-11-15T03:43:04;9.30;99.90
52919;DHT22;38793;52.690;6.812;2022-11-15T03:45:44;9.30;99.90
52919;DHT22;38793;52.690;6.812;2022-11-15T03:48:16;9.40;99.90
52919;DHT22;38793;52.690;6.812;2022-11-15T03:50:44;9.40;99.90
52919;DHT22;38793;52.690;6.812;2022-11-15T03:53:11;9.40;99.90
52919;DHT22;38793;52.690;6.812;2022-11-15T03:55:37;9.40;99.90
52919;DHT22;38793;52.690;6.812;2022-11-15T03:58:02;9.50;99.90
52919;DHT22;38793;52.690;6.812;2022-11-15T04:00:29;9.50;99.90
52919;DHT22;38793;52.690;6.812;2022-11-15T04:02:54;9.50;99.90
52919;DHT22;38793;52.690;6.812;2022-11-15T04:05:20;9.60;99.90
52919;DHT22;38793;52.690;6.812;2022-11-15T04:07:45;9.60;99.90
52919;DHT22;38793;52.690;6.812;2022-11-15T04:10:11;9.60;99.90
52919;DHT22;38793;52.690;6.812;2022-11-15T04:12:39;9.60;99.90
52919;DHT22;38793;52.690;6.812;2022-11-15T04:15:11;9.60;99.90
52919;DHT22;38793;52.690;6.812;2022-11-15T04:20:16;9.70;99.90
52919;DHT22;38793;52.690;6.812;2022-11-15T04:23:03;9.70;99.90
52919;DHT22;38793;52.690;6.812;2022-11-15T04:25:49;9.80;99.90
52919;DHT22;38793;52.690;6.812;2022-11-15T04:28:15;9.80;99.90
52919;DHT22;38793;52.690;6.812;2022-11-15T04:30:41;9.80;99.90
52919;DHT22;38793;52.690;6.812;2022-11-15T04:33:07;9.80;99.90
52919;DHT22;38793;52.690;6.812;2022-11-15T04:35:32;9.90;99.90
52919;DHT22;38793;52.690;6.812;2022-11-15T04:37:58;9.90;99.90
52919;DHT22;38793;52.690;6.812;2022-11-15T04:40:24;9.90;99.90
52919;DHT22;38793;52.690;6.812;2022-11-15T04:42:50;10.00;99.90
52919;DHT22;38793;52.690;6.812;2022-11-15T04:45:15;10.00;99.90
52919;DHT22;38793;52.690;6.812;2022-11-15T04:47:43;10.00;99.90
52919;DHT22;38793;52.690;6.812;2022-11-15T04:50:10;10.00;99.90
52919;DHT22;38793;52.690;6.812;2022-11-15T04:52:50;10.10;99.90
52919;DHT22;38793;52.690;6.812;2022-11-15T04:55:15;10.10;99.90
52919;DHT22;38793;52.690;6.812;2022-11-15T04:57:41;10.10;99.90
52919;DHT22;38793;52.690;6.812;2022-11-15T05:00:13;10.20;99.90
52919;DHT22;38793;52.690;6.812;2022-11-15T05:02:39;10.10;99.90
52919;DHT22;38793;52.690;6.812;2022-11-15T05:05:23;10.20;99.90
52919;DHT22;38793;52.690;6.812;2022-11-15T05:07:49;10.20;99.90
52919;DHT22;38793;52.690;6.812;2022-11-15T05:10:15;10.20;99.90
52919;DHT22;38793;52.690;6.812;2022-11-15T05:12:40;10.20;99.90
52919;DHT22;38793;52.690;6.812;2022-11-15T05:15:06;10.10;99.90
52919;DHT22;38793;52.690;6.812;2022-11-15T05:17:32;10.00;99.90
52919;DHT22;38793;52.690;6.812;2022-11-15T05:19:57;10.00;99.90
52919;DHT22;38793;52.690;6.812;2022-11-15T05:22:23;10.00;99.90
52919;DHT22;38793;52.690;6.812;2022-11-15T05:24:49;10.00;99.90
52919;DHT22;38793;52.690;6.812;2022-11-15T05:27:14;10.00;99.90
52919;DHT22;38793;52.690;6.812;2022-11-15T05:29:40;10.10;99.90
52919;DHT22;38793;52.690;6.812;2022-11-15T05:32:06;10.20;99.90
52919;DHT22;38793;52.690;6.812;2022-11-15T05:34:33;10.20;99.90
52919;DHT22;38793;52.690;6.812;2022-11-15T05:36:59;10.30;99.90
52919;DHT22;38793;52.690;6.812;2022-11-15T05:39:24;10.30;99.90
52919;DHT22;38793;52.690;6.812;2022-11-15T05:41:55;10.40;99.90
52919;DHT22;38793;52.690;6.812;2022-11-15T05:44:22;10.50;99.90
52919;DHT22;38793;52.690;6.812;2022-11-15T05:46:50;10.50;99.90
52919;DHT22;38793;52.690;6.812;2022-11-15T05:49:20;10.50;99.90
52919;DHT22;38793;52.690;6.812;2022-11-15T05:51:48;10.60;99.90
52919;DHT22;38793;52.690;6.812;2022-11-15T05:54:15;10.60;99.90
52919;DHT22;38793;52.690;6.812;2022-11-15T05:56:41;10.70;99.90
52919;DHT22;38793;52.690;6.812;2022-11-15T05:59:08;10.70;99.90
52919;DHT22;38793;52.690;6.812;2022-11-15T06:01:34;10.80;99.90
52919;DHT22;38793;52.690;6.812;2022-11-15T06:04:00;10.80;99.90
52919;DHT22;38793;52.690;6.812;2022-11-15T06:06:27;10.80;99.90
52919;DHT22;38793;52.690;6.812;2022-11-15T06:08:53;10.90;99.90
52919;DHT22;38793;52.690;6.812;2022-11-15T06:11:19;10.90;99.90
52919;DHT22;38793;52.690;6.812;2022-11-15T06:13:44;11.00;99.90
52919;DHT22;38793;52.690;6.812;2022-11-15T06:16:10;11.00;99.90
52919;DHT22;38793;52.690;6.812;2022-11-15T06:18:36;11.10;99.90
52919;DHT22;38793;52.690;6.812;2022-11-15T06:21:02;11.10;99.90
52919;DHT22;38793;52.690;6.812;2022-11-15T06:23:31;11.20;99.90
52919;DHT22;38793;52.690;6.812;2022-11-15T06:26:00;11.20;99.90
52919;DHT22;38793;52.690;6.812;2022-11-15T06:28:33;11.20;99.90
52919;DHT22;38793;52.690;6.812;2022-11-15T06:31:07;11.30;99.90
52919;DHT22;38793;52.690;6.812;2022-11-15T06:33:33;11.30;99.90
52919;DHT22;38793;52.690;6.812;2022-11-15T06:36:07;11.30;99.90
52919;DHT22;38793;52.690;6.812;2022-11-15T06:38:34;11.30;99.90
52919;DHT22;38793;52.690;6.812;2022-11-15T06:41:08;11.40;99.90
52919;DHT22;38793;52.690;6.812;2022-11-15T06:43:34;11.40;99.90
52919;DHT22;38793;52.690;6.812;2022-11-15T06:46:01;11.40;99.90
52919;DHT22;38793;52.690;6.812;2022-11-15T06:48:27;11.40;99.90
52919;DHT22;38793;52.690;6.812;2022-11-15T06:50:54;11.50;99.90
52919;DHT22;38793;52.690;6.812;2022-11-15T06:53:19;11.50;99.90
52919;DHT22;38793;52.690;6.812;2022-11-15T06:55:45;11.50;99.90
52919;DHT22;38793;52.690;6.812;2022-11-15T06:58:11;11.50;99.90
52919;DHT22;38793;52.690;6.812;2022-11-15T07:00:36;11.60;99.90
52919;DHT22;38793;52.690;6.812;2022-11-15T07:03:02;11.60;99.90
52919;DHT22;38793;52.690;6.812;2022-11-15T07:05:28;11.60;99.90
52919;DHT22;38793;52.690;6.812;2022-11-15T07:07:55;11.60;99.90
52919;DHT22;38793;52.690;6.812;2022-11-15T07:10:22;11.60;99.90
52919;DHT22;38793;52.690;6.812;2022-11-15T07:12:50;11.60;99.90
52919;DHT22;38793;52.690;6.812;2022-11-15T07:15:16;11.60;99.90
52919;DHT22;38793;52.690;6.812;2022-11-15T07:17:42;11.60;99.90
52919;DHT22;38793;52.690;6.812;2022-11-15T07:20:08;11.60;99.90
52919;DHT22;38793;52.690;6.812;2022-11-15T07:22:34;11.60;99.90
52919;DHT22;38793;52.690;6.812;2022-11-15T07:24:59;11.50;99.90
52919;DHT22;38793;52.690;6.812;2022-11-15T07:27:25;11.40;99.90
52919;DHT22;38793;52.690;6.812;2022-11-15T07:29:50;11.40;99.90
52919;DHT22;38793;52.690;6.812;2022-11-15T07:32:16;11.30;99.90
52919;DHT22;38793;52.690;6.812;2022-11-15T07:34:42;11.20;99.90
52919;DHT22;38793;52.690;6.812;2022-11-15T07:37:07;11.20;99.90
52919;DHT22;38793;52.690;6.812;2022-11-15T07:39:33;11.20;99.90
52919;DHT22;38793;52.690;6.812;2022-11-15T07:41:59;11.20;99.90
52919;DHT22;38793;52.690;6.812;2022-11-15T07:44:43;11.20;99.90
52919;DHT22;38793;52.690;6.812;2022-11-15T07:47:09;11.20;99.90
52919;DHT22;38793;52.690;6.812;2022-11-15T07:49:34;11.20;99.90
52919;DHT22;38793;52.690;6.812;2022-11-15T07:52:00;11.20;99.90
52919;DHT22;38793;52.690;6.812;2022-11-15T07:54:25;11.20;99.90
52919;DHT22;38793;52.690;6.812;2022-11-15T07:56:51;11.20;99.90
52919;DHT22;38793;52.690;6.812;2022-11-15T07:59:16;11.30;99.90
52919;DHT22;38793;52.690;6.812;2022-11-15T08:01:42;11.30;99.90
52919;DHT22;38793;52.690;6.812;2022-11-15T08:04:09;11.30;99.90
52919;DHT22;38793;52.690;6.812;2022-11-15T08:06:35;11.30;99.90
52919;DHT22;38793;52.690;6.812;2022-11-15T08:09:00;11.40;99.90
52919;DHT22;38793;52.690;6.812;2022-11-15T08:11:26;11.40;99.90
52919;DHT22;38793;52.690;6.812;2022-11-15T08:13:51;11.40;99.90
52919;DHT22;38793;52.690;6.812;2022-11-15T08:16:17;11.40;99.90
52919;DHT22;38793;52.690;6.812;2022-11-15T08:18:43;11.40;99.90
52919;DHT22;38793;52.690;6.812;2022-11-15T08:21:09;11.50;99.90
52919;DHT22;38793;52.690;6.812;2022-11-15T08:23:38;11.50;99.90
52919;DHT22;38793;52.690;6.812;2022-11-15T08:26:04;11.50;99.90
52919;DHT22;38793;52.690;6.812;2022-11-15T08:28:30;11.50;99.90
52919;DHT22;38793;52.690;6.812;2022-11-15T08:30:56;11.60;99.90
52919;DHT22;38793;52.690;6.812;2022-11-15T08:33:22;11.60;99.90
52919;DHT22;38793;52.690;6.812;2022-11-15T08:35:48;11.60;99.90
52919;DHT22;38793;52.690;6.812;2022-11-15T08:38:14;11.60;99.90
52919;DHT22;38793;52.690;6.812;2022-11-15T08:40:39;11.60;99.90
52919;DHT22;38793;52.690;6.812;2022-11-15T08:43:05;11.60;99.90
52919;DHT22;38793;52.690;6.812;2022-11-15T08:45:33;11.60;99.90
52919;DHT22;38793;52.690;6.812;2022-11-15T08:48:01;11.70;99.90
52919;DHT22;38793;52.690;6.812;2022-11-15T08:50:27;11.70;99.90
52919;DHT22;38793;52.690;6.812;2022-11-15T08:52:52;11.70;99.90
52919;DHT22;38793;52.690;6.812;2022-11-15T08:55:18;11.70;99.90
52919;DHT22;38793;52.690;6.812;2022-11-15T08:57:44;11.70;99.90
52919;DHT22;38793;52.690;6.812;2022-11-15T09:00:10;11.80;99.90
52919;DHT22;38793;52.690;6.812;2022-11-15T09:02:38;11.80;99.90
52919;DHT22;38793;52.690;6.812;2022-11-15T09:05:04;11.80;99.90
52919;DHT22;38793;52.690;6.812;2022-11-15T09:07:30;11.80;99.90
52919;DHT22;38793;52.690;6.812;2022-11-15T09:09:57;11.80;99.90
52919;DHT22;38793;52.690;6.812;2022-11-15T09:12:23;11.80;99.90
52919;DHT22;38793;52.690;6.812;2022-11-15T09:14:48;11.80;99.90
52919;DHT22;38793;52.690;6.812;2022-11-15T09:17:14;11.90;99.90
52919;DHT22;38793;52.690;6.812;2022-11-15T09:19:39;11.90;99.90
52919;DHT22;38793;52.690;6.812;2022-11-15T09:22:08;11.90;99.90
52919;DHT22;38793;52.690;6.812;2022-11-15T09:24:34;11.90;99.90
52919;DHT22;38793;52.690;6.812;2022-11-15T09:27:00;11.90;99.90
52919;DHT22;38793;52.690;6.812;2022-11-15T09:29:25;11.90;99.90
52919;DHT22;38793;52.690;6.812;2022-11-15T09:31:54;11.90;99.90
52919;DHT22;38793;52.690;6.812;2022-11-15T09:34:20;11.90;99.90
52919;DHT22;38793;52.690;6.812;2022-11-15T09:36:46;11.80;99.90
52919;DHT22;38793;52.690;6.812;2022-11-15T09:39:12;11.80;99.90
52919;DHT22;38793;52.690;6.812;2022-11-15T09:41:51;11.80;99.90
52919;DHT22;38793;52.690;6.812;2022-11-15T09:47:28;11.80;99.90
52919;DHT22;38793;52.690;6.812;2022-11-15T09:49:59;11.80;99.90
52919;DHT22;38793;52.690;6.812;2022-11-15T09:52:25;11.80;99.90
52919;DHT22;38793;52.690;6.812;2022-11-15T09:54:52;11.80;99.90
52919;DHT22;38793;52.690;6.812;2022-11-15T10:00:41;11.80;99.90
52919;DHT22;38793;52.690;6.812;2022-11-15T10:05:46;11.80;99.90
52919;DHT22;38793;52.690;6.812;2022-11-15T10:08:22;11.90;99.90
52919;DHT22;38793;52.690;6.812;2022-11-15T10:10:53;11.90;99.90
52919;DHT22;38793;52.690;6.812;2022-11-15T10:13:23;11.90;99.90
52919;DHT22;38793;52.690;6.812;2022-11-15T10:15:50;11.90;99.90
52919;DHT22;38793;52.690;6.812;2022-11-15T10:18:29;11.90;99.90
52919;DHT22;38793;52.690;6.812;2022-11-15T10:21:00;11.90;99.90
52919;DHT22;38793;52.690;6.812;2022-11-15T10:23:29;11.90;99.90
52919;DHT22;38793;52.690;6.812;2022-11-15T10:25:59;12.00;99.90
52919;DHT22;38793;52.690;6.812;2022-11-15T10:28:30;12.00;99.90
52919;DHT22;38793;52.690;6.812;2022-11-15T10:30:59;12.10;99.90
52919;DHT22;38793;52.690;6.812;2022-11-15T10:36:15;12.10;99.90
52919;DHT22;38793;52.690;6.812;2022-11-15T10:38:52;12.10;99.90
52919;DHT22;38793;52.690;6.812;2022-11-15T10:41:30;12.10;99.90
52919;DHT22;38793;52.690;6.812;2022-11-15T10:47:32;12.20;99.90
52919;DHT22;38793;52.690;6.812;2022-11-15T10:49:34;12.20;99.90
52919;DHT22;38793;52.690;6.812;2022-11-15T10:52:14;12.30;99.90
52919;DHT22;38793;52.690;6.812;2022-11-15T10:54:43;12.30;99.90
52919;DHT22;38793;52.690;6.812;2022-11-15T10:57:18;12.40;99.90
52919;DHT22;38793;52.690;6.812;2022-11-15T10:59:53;12.50;99.90
52919;DHT22;38793;52.690;6.812;2022-11-15T11:02:32;12.50;99.90
52919;DHT22;38793;52.690;6.812;2022-11-15T11:04:59;12.50;99.90
52919;DHT22;38793;52.690;6.812;2022-11-15T11:07:30;12.60;99.90
52919;DHT22;38793;52.690;6.812;2022-11-15T11:10:04;12.60;99.90
52919;DHT22;38793;52.690;6.812;2022-11-15T11:12:33;12.70;99.90
52919;DHT22;38793;52.690;6.812;2022-11-15T11:15:01;12.70;99.90
52919;DHT22;38793;52.690;6.812;2022-11-15T11:17:57;12.80;99.90
52919;DHT22;38793;52.690;6.812;2022-11-15T11:20:42;13.00;99.90
52919;DHT22;38793;52.690;6.812;2022-11-15T11:23:42;13.10;99.90
52919;DHT22;38793;52.690;6.812;2022-11-15T11:26:31;13.40;99.90
52919;DHT22;38793;52.690;6.812;2022-11-15T11:29:10;13.60;99.90
52919;DHT22;38793;52.690;6.812;2022-11-15T11:34:34;13.80;99.90
52919;DHT22;38793;52.690;6.812;2022-11-15T11:39:53;13.90;99.90
52919;DHT22;38793;52.690;6.812;2022-11-15T11:47:40;13.80;99.90
52919;DHT22;38793;52.690;6.812;2022-11-15T11:50:22;13.80;99.90
52919;DHT22;38793;52.690;6.812;2022-11-15T11:53:12;13.80;99.90
52919;DHT22;38793;52.690;6.812;2022-11-15T11:55:43;13.80;99.90
52919;DHT22;38793;52.690;6.812;2022-11-15T12:01:12;13.90;99.90
52919;DHT22;38793;52.690;6.812;2022-11-15T12:03:59;14.10;99.90
52919;DHT22;38793;52.690;6.812;2022-11-15T12:06:36;14.30;99.90
52919;DHT22;38793;52.690;6.812;2022-11-15T12:11:53;14.40;99.90
52919;DHT22;38793;52.690;6.812;2022-11-15T12:14:53;14.40;99.90
52919;DHT22;38793;52.690;6.812;2022-11-15T12:17:26;14.50;99.90
52919;DHT22;38793;52.690;6.812;2022-11-15T12:19:56;14.60;99.90
52919;DHT22;38793;52.690;6.812;2022-11-15T12:22:36;14.60;99.90
52919;DHT22;38793;52.690;6.812;2022-11-15T12:28:11;14.80;99.90
52919;DHT22;38793;52.690;6.812;2022-11-15T12:30:52;14.90;99.90
52919;DHT22;38793;52.690;6.812;2022-11-15T12:33:46;15.20;99.90
52919;DHT22;38793;52.690;6.812;2022-11-15T12:41:20;16.00;99.90
52919;DHT22;38793;52.690;6.812;2022-11-15T12:43:47;16.30;99.90
52919;DHT22;38793;52.690;6.812;2022-11-15T12:46:25;16.20;99.90
52919;DHT22;38793;52.690;6.812;2022-11-15T13:04:45;17.80;99.20
52919;DHT22;38793;52.690;6.812;2022-11-15T13:22:43;16.00;99.90
52919;DHT22;38793;52.690;6.812;2022-11-15T13:30:53;15.60;99.40
52919;DHT22;38793;52.690;6.812;2022-11-15T13:33:25;15.50;99.20
52919;DHT22;38793;52.690;6.812;2022-11-15T13:35:56;15.50;99.90
52919;DHT22;38793;52.690;6.812;2022-11-15T13:38:32;15.60;99.90
52919;DHT22;38793;52.690;6.812;2022-11-15T13:40:59;15.50;99.70
52919;DHT22;38793;52.690;6.812;2022-11-15T13:48:45;15.10;99.70
52919;DHT22;38793;52.690;6.812;2022-11-15T13:51:20;15.00;99.90
52919;DHT22;38793;52.690;6.812;2022-11-15T13:53:58;14.90;99.90
52919;DHT22;38793;52.690;6.812;2022-11-15T13:56:27;14.70;99.90
52919;DHT22;38793;52.690;6.812;2022-11-15T13:58:54;14.70;99.90
52919;DHT22;38793;52.690;6.812;2022-11-15T14:01:21;14.50;99.90
52919;DHT22;38793;52.690;6.812;2022-11-15T14:03:54;14.40;99.90
52919;DHT22;38793;52.690;6.812;2022-11-15T14:06:22;14.30;99.90
52919;DHT22;38793;52.690;6.812;2022-11-15T14:09:00;14.20;99.90
52919;DHT22;38793;52.690;6.812;2022-11-15T14:11:26;14.20;99.90
52919;DHT22;38793;52.690;6.812;2022-11-15T14:17:00;14.10;99.90
52919;DHT22;38793;52.690;6.812;2022-11-15T14:22:17;14.00;99.90
52919;DHT22;38793;52.690;6.812;2022-11-15T14:24:45;14.00;99.90
52919;DHT22;38793;52.690;6.812;2022-11-15T14:27:25;13.90;99.90
52919;DHT22;38793;52.690;6.812;2022-11-15T14:29:51;13.70;99.90
52919;DHT22;38793;52.690;6.812;2022-11-15T14:32:22;13.60;99.90
52919;DHT22;38793;52.690;6.812;2022-11-15T14:34:57;13.50;99.90
52919;DHT22;38793;52.690;6.812;2022-11-15T14:37:30;13.40;99.90
52919;DHT22;38793;52.690;6.812;2022-11-15T14:40:00;13.30;99.90
52919;DHT22;38793;52.690;6.812;2022-11-15T14:42:26;13.30;99.90
52919;DHT22;38793;52.690;6.812;2022-11-15T14:44:51;13.10;99.90
52919;DHT22;38793;52.690;6.812;2022-11-15T14:47:18;13.10;99.90
52919;DHT22;38793;52.690;6.812;2022-11-15T14:49:43;13.00;99.90
52919;DHT22;38793;52.690;6.812;2022-11-15T14:52:28;12.90;99.90
52919;DHT22;38793;52.690;6.812;2022-11-15T14:54:55;12.90;99.90
52919;DHT22;38793;52.690;6.812;2022-11-15T14:57:21;12.80;99.90
52919;DHT22;38793;52.690;6.812;2022-11-15T14:59:46;12.70;99.90
52919;DHT22;38793;52.690;6.812;2022-11-15T15:02:20;12.70;99.90
52919;DHT22;38793;52.690;6.812;2022-11-15T15:04:47;12.70;99.90
52919;DHT22;38793;52.690;6.812;2022-11-15T15:07:12;12.60;99.90
52919;DHT22;38793;52.690;6.812;2022-11-15T15:09:38;12.50;99.90
52919;DHT22;38793;52.690;6.812;2022-11-15T15:12:10;12.40;99.90
52919;DHT22;38793;52.690;6.812;2022-11-15T15:14:37;12.30;99.90
52919;DHT22;38793;52.690;6.812;2022-11-15T15:17:02;12.20;99.90
52919;DHT22;38793;52.690;6.812;2022-11-15T15:19:29;12.20;99.90
52919;DHT22;38793;52.690;6.812;2022-11-15T15:21:54;12.00;99.90
52919;DHT22;38793;52.690;6.812;2022-11-15T15:24:20;12.00;99.90
52919;DHT22;38793;52.690;6.812;2022-11-15T15:26:45;11.90;99.90
52919;DHT22;38793;52.690;6.812;2022-11-15T15:29:11;11.80;99.90
52919;DHT22;38793;52.690;6.812;2022-11-15T15:31:36;11.80;99.90
52919;DHT22;38793;52.690;6.812;2022-11-15T15:34:02;11.70;99.90
52919;DHT22;38793;52.690;6.812;2022-11-15T15:36:28;11.60;99.90
52919;DHT22;38793;52.690;6.812;2022-11-15T15:38:53;11.50;99.90
52919;DHT22;38793;52.690;6.812;2022-11-15T15:41:19;11.50;99.90
52919;DHT22;38793;52.690;6.812;2022-11-15T15:43:44;11.40;99.90
52919;DHT22;38793;52.690;6.812;2022-11-15T15:46:13;11.40;99.90
52919;DHT22;38793;52.690;6.812;2022-11-15T15:48:39;11.40;99.90
52919;DHT22;38793;52.690;6.812;2022-11-15T15:51:05;11.30;99.90
52919;DHT22;38793;52.690;6.812;2022-11-15T15:53:31;11.30;99.90
52919;DHT22;38793;52.690;6.812;2022-11-15T15:55:57;11.20;99.90
52919;DHT22;38793;52.690;6.812;2022-11-15T15:58:23;11.20;99.90
52919;DHT22;38793;52.690;6.812;2022-11-15T16:00:48;11.20;99.90
52919;DHT22;38793;52.690;6.812;2022-11-15T16:03:14;11.10;99.90
52919;DHT22;38793;52.690;6.812;2022-11-15T16:05:39;11.10;99.90
52919;DHT22;38793;52.690;6.812;2022-11-15T16:08:05;11.00;99.90
52919;DHT22;38793;52.690;6.812;2022-11-15T16:10:32;11.00;99.90
52919;DHT22;38793;52.690;6.812;2022-11-15T16:13:02;11.00;99.90
52919;DHT22;38793;52.690;6.812;2022-11-15T16:15:30;11.00;99.90
52919;DHT22;38793;52.690;6.812;2022-11-15T16:17:58;11.00;99.90
52919;DHT22;38793;52.690;6.812;2022-11-15T16:20:32;10.90;99.90
52919;DHT22;38793;52.690;6.812;2022-11-15T16:22:58;10.90;99.90
52919;DHT22;38793;52.690;6.812;2022-11-15T16:25:24;10.80;99.90
52919;DHT22;38793;52.690;6.812;2022-11-15T16:27:50;10.80;99.90
52919;DHT22;38793;52.690;6.812;2022-11-15T16:30:18;10.70;99.90
52919;DHT22;38793;52.690;6.812;2022-11-15T16:32:44;10.70;99.90
52919;DHT22;38793;52.690;6.812;2022-11-15T16:35:11;10.70;99.90
52919;DHT22;38793;52.690;6.812;2022-11-15T16:37:40;10.70;99.90
52919;DHT22;38793;52.690;6.812;2022-11-15T16:40:30;10.70;99.90
52919;DHT22;38793;52.690;6.812;2022-11-15T16:42:57;10.70;99.90
52919;DHT22;38793;52.690;6.812;2022-11-15T16:45:24;10.70;99.90
52919;DHT22;38793;52.690;6.812;2022-11-15T16:47:50;10.80;99.90
52919;DHT22;38793;52.690;6.812;2022-11-15T16:50:34;10.80;99.90
52919;DHT22;38793;52.690;6.812;2022-11-15T16:53:06;10.80;99.90
52919;DHT22;38793;52.690;6.812;2022-11-15T16:55:31;10.90;99.90
52919;DHT22;38793;52.690;6.812;2022-11-15T16:57:57;10.90;99.90
52919;DHT22;38793;52.690;6.812;2022-11-15T17:00:23;11.00;99.90
52919;DHT22;38793;52.690;6.812;2022-11-15T17:02:50;11.00;99.90
52919;DHT22;38793;52.690;6.812;2022-11-15T17:05:18;11.10;99.90
52919;DHT22;38793;52.690;6.812;2022-11-15T17:07:51;11.00;99.90
52919;DHT22;38793;52.690;6.812;2022-11-15T17:10:22;11.00;99.90
52919;DHT22;38793;52.690;6.812;2022-11-15T17:12:48;11.10;99.90
52919;DHT22;38793;52.690;6.812;2022-11-15T17:15:15;11.10;99.90
52919;DHT22;38793;52.690;6.812;2022-11-15T17:17:41;11.00;99.90
52919;DHT22;38793;52.690;6.812;2022-11-15T17:20:16;11.00;99.90
52919;DHT22;38793;52.690;6.812;2022-11-15T17:22:41;11.00;99.90
52919;DHT22;38793;52.690;6.812;2022-11-15T17:25:07;11.00;99.90
52919;DHT22;38793;52.690;6.812;2022-11-15T17:27:33;11.00;99.90
52919;DHT22;38793;52.690;6.812;2022-11-15T17:29:59;11.00;99.90
52919;DHT22;38793;52.690;6.812;2022-11-15T17:32:24;11.10;99.90
52919;DHT22;38793;52.690;6.812;2022-11-15T17:34:50;11.10;99.90
52919;DHT22;38793;52.690;6.812;2022-11-15T17:37:15;11.10;99.90
52919;DHT22;38793;52.690;6.812;2022-11-15T17:39:41;11.10;99.90
52919;DHT22;38793;52.690;6.812;2022-11-15T17:42:06;11.10;99.90